sensor_id;sensor_type;location;lat;lon;timestamp;temperature;humidity
14142;DHT22;7151;52.246;4.820;2024-01-30T00:02:18;11.90;90.30
14142;DHT22;7151;52.246;4.820;2024-01-30T00:04:44;11.90;90.30
14142;DHT22;7151;52.246;4.820;2024-01-30T00:07:12;12.00;90.30
14142;DHT22;7151;52.246;4.820;2024-01-30T00:09:38;11.90;90.30
14142;DHT22;7151;52.246;4.820;2024-01-30T00:12:07;11.90;90.30
14142;DHT22;7151;52.246;4.820;2024-01-30T00:14:35;11.90;90.40
14142;DHT22;7151;52.246;4.820;2024-01-30T00:17:00;11.90;90.40
14142;DHT22;7151;52.246;4.820;2024-01-30T00:19:26;11.80;90.40
14142;DHT22;7151;52.246;4.820;2024-01-30T00:21:52;11.90;90.40
14142;DHT22;7151;52.246;4.820;2024-01-30T00:24:17;11.90;90.40
14142;DHT22;7151;52.246;4.820;2024-01-30T00:26:43;11.90;90.40
14142;DHT22;7151;52.246;4.820;2024-01-30T00:29:08;11.90;90.40
14142;DHT22;7151;52.246;4.820;2024-01-30T00:31:37;11.90;90.50
14142;DHT22;7151;52.246;4.820;2024-01-30T00:34:02;11.90;90.50
14142;DHT22;7151;52.246;4.820;2024-01-30T00:36:28;11.90;90.50
14142;DHT22;7151;52.246;4.820;2024-01-30T00:38:58;11.90;90.80
14142;DHT22;7151;52.246;4.820;2024-01-30T00:41:24;11.80;90.50
14142;DHT22;7151;52.246;4.820;2024-01-30T00:43:49;11.90;90.50
14142;DHT22;7151;52.246;4.820;2024-01-30T00:46:15;12.00;90.60
14142;DHT22;7151;52.246;4.820;2024-01-30T00:48:41;12.00;90.60
14142;DHT22;7151;52.246;4.820;2024-01-30T00:51:06;11.90;90.50
14142;DHT22;7151;52.246;4.820;2024-01-30T00:53:32;11.90;90.60
14142;DHT22;7151;52.246;4.820;2024-01-30T00:55:57;12.00;90.60
14142;DHT22;7151;52.246;4.820;2024-01-30T00:58:23;12.00;90.60
14142;DHT22;7151;52.246;4.820;2024-01-30T01:00:48;12.00;90.60
14142;DHT22;7151;52.246;4.820;2024-01-30T01:03:14;12.00;90.60
14142;DHT22;7151;52.246;4.820;2024-01-30T01:05:42;12.00;90.60
14142;DHT22;7151;52.246;4.820;2024-01-30T01:08:07;12.00;90.60
14142;DHT22;7151;52.246;4.820;2024-01-30T01:10:34;12.00;90.60
14142;DHT22;7151;52.246;4.820;2024-01-30T01:13:00;12.00;90.70
14142;DHT22;7151;52.246;4.820;2024-01-30T01:15:25;12.00;90.70
14142;DHT22;7151;52.246;4.820;2024-01-30T01:17:51;12.10;90.70
14142;DHT22;7151;52.246;4.820;2024-01-30T01:20:16;12.00;90.70
14142;DHT22;7151;52.246;4.820;2024-01-30T01:22:42;12.10;90.70
14142;DHT22;7151;52.246;4.820;2024-01-30T01:25:08;12.10;90.70
14142;DHT22;7151;52.246;4.820;2024-01-30T01:27:35;12.10;90.70
14142;DHT22;7151;52.246;4.820;2024-01-30T01:30:10;12.10;90.70
14142;DHT22;7151;52.246;4.820;2024-01-30T01:32:44;12.10;90.70
14142;DHT22;7151;52.246;4.820;2024-01-30T01:35:15;12.10;90.70
14142;DHT22;7151;52.246;4.820;2024-01-30T01:37:41;12.10;90.70
14142;DHT22;7151;52.246;4.820;2024-01-30T01:40:07;12.10;90.70
14142;DHT22;7151;52.246;4.820;2024-01-30T01:42:35;12.10;90.70
14142;DHT22;7151;52.246;4.820;2024-01-30T01:45:01;12.20;91.00
14142;DHT22;7151;52.246;4.820;2024-01-30T01:47:27;12.10;90.70
14142;DHT22;7151;52.246;4.820;2024-01-30T01:49:52;12.10;90.70
14142;DHT22;7151;52.246;4.820;2024-01-30T01:52:18;12.10;90.60
14142;DHT22;7151;52.246;4.820;2024-01-30T01:54:44;12.10;90.60
14142;DHT22;7151;52.246;4.820;2024-01-30T01:57:13;12.10;90.60
14142;DHT22;7151;52.246;4.820;2024-01-30T01:59:38;12.10;90.60
14142;DHT22;7151;52.246;4.820;2024-01-30T02:02:04;12.10;90.70
14142;DHT22;7151;52.246;4.820;2024-01-30T02:04:32;12.10;90.70
14142;DHT22;7151;52.246;4.820;2024-01-30T02:06:58;12.10;90.70
14142;DHT22;7151;52.246;4.820;2024-01-30T02:09:24;12.10;90.60
14142;DHT22;7151;52.246;4.820;2024-01-30T02:11:52;12.10;90.60
14142;DHT22;7151;52.246;4.820;2024-01-30T02:14:17;12.10;90.60
14142;DHT22;7151;52.246;4.820;2024-01-30T02:16:43;12.10;90.60
14142;DHT22;7151;52.246;4.820;2024-01-30T02:19:08;12.10;90.60
14142;DHT22;7151;52.246;4.820;2024-01-30T02:21:34;12.00;90.50
14142;DHT22;7151;52.246;4.820;2024-01-30T02:24:01;12.00;90.60
14142;DHT22;7151;52.246;4.820;2024-01-30T02:26:28;12.00;90.60
14142;DHT22;7151;52.246;4.820;2024-01-30T02:28:53;12.00;90.60
14142;DHT22;7151;52.246;4.820;2024-01-30T02:31:19;12.00;90.60
14142;DHT22;7151;52.246;4.820;2024-01-30T02:33:45;12.00;90.60
14142;DHT22;7151;52.246;4.820;2024-01-30T02:36:13;12.00;90.60
14142;DHT22;7151;52.246;4.820;2024-01-30T02:38:40;11.90;90.60
14142;DHT22;7151;52.246;4.820;2024-01-30T02:41:06;12.00;90.60
14142;DHT22;7151;52.246;4.820;2024-01-30T02:43:32;11.90;90.60
14142;DHT22;7151;52.246;4.820;2024-01-30T02:45:57;11.90;90.60
14142;DHT22;7151;52.246;4.820;2024-01-30T02:48:25;11.90;90.60
14142;DHT22;7151;52.246;4.820;2024-01-30T02:50:50;11.90;90.60
14142;DHT22;7151;52.246;4.820;2024-01-30T02:53:16;11.90;90.70
14142;DHT22;7151;52.246;4.820;2024-01-30T02:55:42;12.00;90.70
14142;DHT22;7151;52.246;4.820;2024-01-30T02:58:08;12.00;90.70
14142;DHT22;7151;52.246;4.820;2024-01-30T03:00:36;11.90;90.70
14142;DHT22;7151;52.246;4.820;2024-01-30T03:03:02;12.00;90.70
14142;DHT22;7151;52.246;4.820;2024-01-30T03:05:28;12.00;90.70
14142;DHT22;7151;52.246;4.820;2024-01-30T03:07:53;11.90;90.70
14142;DHT22;7151;52.246;4.820;2024-01-30T03:10:19;12.00;90.70
14142;DHT22;7151;52.246;4.820;2024-01-30T03:12:44;11.90;90.70
14142;DHT22;7151;52.246;4.820;2024-01-30T03:15:10;12.00;90.70
14142;DHT22;7151;52.246;4.820;2024-01-30T03:17:36;11.90;90.70
14142;DHT22;7151;52.246;4.820;2024-01-30T03:20:03;12.10;90.80
14142;DHT22;7151;52.246;4.820;2024-01-30T03:22:29;12.00;90.80
14142;DHT22;7151;52.246;4.820;2024-01-30T03:24:55;12.00;90.80
14142;DHT22;7151;52.246;4.820;2024-01-30T03:27:20;11.90;90.80
14142;DHT22;7151;52.246;4.820;2024-01-30T03:29:46;12.00;90.80
14142;DHT22;7151;52.246;4.820;2024-01-30T03:32:11;12.00;90.80
14142;DHT22;7151;52.246;4.820;2024-01-30T03:34:37;12.00;90.80
14142;DHT22;7151;52.246;4.820;2024-01-30T03:37:03;11.90;90.80
14142;DHT22;7151;52.246;4.820;2024-01-30T03:39:28;12.00;90.80
14142;DHT22;7151;52.246;4.820;2024-01-30T03:41:54;12.00;90.80
14142;DHT22;7151;52.246;4.820;2024-01-30T03:44:19;12.00;90.80
14142;DHT22;7151;52.246;4.820;2024-01-30T03:46:46;12.00;90.80
14142;DHT22;7151;52.246;4.820;2024-01-30T03:49:11;12.00;90.80
14142;DHT22;7151;52.246;4.820;2024-01-30T03:51:37;12.00;90.80
14142;DHT22;7151;52.246;4.820;2024-01-30T03:54:02;11.90;90.80
14142;DHT22;7151;52.246;4.820;2024-01-30T03:56:28;11.90;90.80
14142;DHT22;7151;52.246;4.820;2024-01-30T03:58:53;12.00;90.80
14142;DHT22;7151;52.246;4.820;2024-01-30T04:01:19;11.90;90.80
14142;DHT22;7151;52.246;4.820;2024-01-30T04:03:45;11.90;90.80
14142;DHT22;7151;52.246;4.820;2024-01-30T04:06:10;12.00;90.80
14142;DHT22;7151;52.246;4.820;2024-01-30T04:08:37;12.00;90.80
14142;DHT22;7151;52.246;4.820;2024-01-30T04:11:06;11.90;90.80
14142;DHT22;7151;52.246;4.820;2024-01-30T04:13:32;11.90;90.80
14142;DHT22;7151;52.246;4.820;2024-01-30T04:15:59;12.00;90.90
14142;DHT22;7151;52.246;4.820;2024-01-30T04:18:26;11.90;90.90
14142;DHT22;7151;52.246;4.820;2024-01-30T04:20:52;12.00;90.90
14142;DHT22;7151;52.246;4.820;2024-01-30T04:23:18;12.10;90.90
14142;DHT22;7151;52.246;4.820;2024-01-30T04:25:43;11.90;90.90
14142;DHT22;7151;52.246;4.820;2024-01-30T04:28:10;11.90;90.90
14142;DHT22;7151;52.246;4.820;2024-01-30T04:30:38;12.00;90.90
14142;DHT22;7151;52.246;4.820;2024-01-30T04:33:04;12.00;91.00
14142;DHT22;7151;52.246;4.820;2024-01-30T04:35:29;12.00;91.00
14142;DHT22;7151;52.246;4.820;2024-01-30T04:37:55;11.90;91.00
14142;DHT22;7151;52.246;4.820;2024-01-30T04:40:21;11.90;91.00
14142;DHT22;7151;52.246;4.820;2024-01-30T04:42:47;12.00;91.10
14142;DHT22;7151;52.246;4.820;2024-01-30T04:45:12;12.00;91.10
14142;DHT22;7151;52.246;4.820;2024-01-30T04:47:38;12.00;91.10
14142;DHT22;7151;52.246;4.820;2024-01-30T04:50:06;12.00;91.10
14142;DHT22;7151;52.246;4.820;2024-01-30T04:52:32;12.00;91.10
14142;DHT22;7151;52.246;4.820;2024-01-30T04:54:57;12.00;91.10
14142;DHT22;7151;52.246;4.820;2024-01-30T04:57:23;12.00;91.10
14142;DHT22;7151;52.246;4.820;2024-01-30T04:59:49;11.90;91.00
14142;DHT22;7151;52.246;4.820;2024-01-30T05:02:15;12.00;91.10
14142;DHT22;7151;52.246;4.820;2024-01-30T05:04:43;12.00;91.10
14142;DHT22;7151;52.246;4.820;2024-01-30T05:07:09;12.00;91.10
14142;DHT22;7151;52.246;4.820;2024-01-30T05:09:34;12.00;91.10
14142;DHT22;7151;52.246;4.820;2024-01-30T05:12:00;12.00;91.10
14142;DHT22;7151;52.246;4.820;2024-01-30T05:14:25;12.00;91.10
14142;DHT22;7151;52.246;4.820;2024-01-30T05:16:51;12.00;91.10
14142;DHT22;7151;52.246;4.820;2024-01-30T05:19:17;12.00;91.10
14142;DHT22;7151;52.246;4.820;2024-01-30T05:21:43;12.00;91.10
14142;DHT22;7151;52.246;4.820;2024-01-30T05:24:08;12.00;91.10
14142;DHT22;7151;52.246;4.820;2024-01-30T05:26:35;12.00;91.10
14142;DHT22;7151;52.246;4.820;2024-01-30T05:29:01;12.00;91.10
14142;DHT22;7151;52.246;4.820;2024-01-30T05:31:27;12.00;91.10
14142;DHT22;7151;52.246;4.820;2024-01-30T05:33:53;12.00;91.10
14142;DHT22;7151;52.246;4.820;2024-01-30T05:36:18;12.00;91.20
14142;DHT22;7151;52.246;4.820;2024-01-30T05:38:44;11.90;91.10
14142;DHT22;7151;52.246;4.820;2024-01-30T05:41:09;12.10;91.20
14142;DHT22;7151;52.246;4.820;2024-01-30T05:43:35;12.00;91.20
14142;DHT22;7151;52.246;4.820;2024-01-30T05:46:00;12.00;91.20
14142;DHT22;7151;52.246;4.820;2024-01-30T05:48:26;12.00;91.20
14142;DHT22;7151;52.246;4.820;2024-01-30T05:50:51;12.00;91.20
14142;DHT22;7151;52.246;4.820;2024-01-30T05:53:17;12.00;91.30
14142;DHT22;7151;52.246;4.820;2024-01-30T05:55:43;12.00;91.30
14142;DHT22;7151;52.246;4.820;2024-01-30T05:58:08;12.00;91.30
14142;DHT22;7151;52.246;4.820;2024-01-30T06:00:37;12.00;91.30
14142;DHT22;7151;52.246;4.820;2024-01-30T06:03:03;12.10;91.30
14142;DHT22;7151;52.246;4.820;2024-01-30T06:05:28;12.00;91.30
14142;DHT22;7151;52.246;4.820;2024-01-30T06:07:57;12.00;91.30
14142;DHT22;7151;52.246;4.820;2024-01-30T06:10:22;12.10;91.40
14142;DHT22;7151;52.246;4.820;2024-01-30T06:12:48;12.00;91.30
14142;DHT22;7151;52.246;4.820;2024-01-30T06:15:14;12.00;91.40
14142;DHT22;7151;52.246;4.820;2024-01-30T06:17:39;12.00;91.30
14142;DHT22;7151;52.246;4.820;2024-01-30T06:20:06;12.10;91.40
14142;DHT22;7151;52.246;4.820;2024-01-30T06:22:31;12.10;91.40
14142;DHT22;7151;52.246;4.820;2024-01-30T06:24:57;12.00;91.40
14142;DHT22;7151;52.246;4.820;2024-01-30T06:27:23;12.10;91.40
14142;DHT22;7151;52.246;4.820;2024-01-30T06:29:48;12.20;91.50
14142;DHT22;7151;52.246;4.820;2024-01-30T06:32:14;12.10;91.40
14142;DHT22;7151;52.246;4.820;2024-01-30T06:34:41;12.20;91.50
14142;DHT22;7151;52.246;4.820;2024-01-30T06:37:06;12.10;91.50
14142;DHT22;7151;52.246;4.820;2024-01-30T06:39:32;12.10;91.50
14142;DHT22;7151;52.246;4.820;2024-01-30T06:42:01;12.20;91.60
14142;DHT22;7151;52.246;4.820;2024-01-30T06:44:27;12.10;91.50
14142;DHT22;7151;52.246;4.820;2024-01-30T06:46:53;12.10;91.50
14142;DHT22;7151;52.246;4.820;2024-01-30T06:49:19;12.10;91.50
14142;DHT22;7151;52.246;4.820;2024-01-30T06:51:44;12.10;91.60
14142;DHT22;7151;52.246;4.820;2024-01-30T06:54:10;12.10;91.60
14142;DHT22;7151;52.246;4.820;2024-01-30T06:56:38;12.10;91.60
14142;DHT22;7151;52.246;4.820;2024-01-30T06:59:04;12.20;91.60
14142;DHT22;7151;52.246;4.820;2024-01-30T07:01:30;12.20;91.60
14142;DHT22;7151;52.246;4.820;2024-01-30T07:03:56;12.30;91.60
14142;DHT22;7151;52.246;4.820;2024-01-30T07:06:22;12.20;91.60
14142;DHT22;7151;52.246;4.820;2024-01-30T07:08:52;12.20;91.60
14142;DHT22;7151;52.246;4.820;2024-01-30T07:11:21;12.20;91.60
14142;DHT22;7151;52.246;4.820;2024-01-30T07:13:52;12.30;91.70
14142;DHT22;7151;52.246;4.820;2024-01-30T07:16:18;12.20;91.70
14142;DHT22;7151;52.246;4.820;2024-01-30T07:18:44;12.20;91.70
14142;DHT22;7151;52.246;4.820;2024-01-30T07:21:09;12.20;91.70
14142;DHT22;7151;52.246;4.820;2024-01-30T07:23:35;12.10;91.70
14142;DHT22;7151;52.246;4.820;2024-01-30T07:26:07;12.20;91.70
14142;DHT22;7151;52.246;4.820;2024-01-30T07:28:32;12.20;91.70
14142;DHT22;7151;52.246;4.820;2024-01-30T07:30:59;12.30;91.80
14142;DHT22;7151;52.246;4.820;2024-01-30T07:33:24;12.30;91.80
14142;DHT22;7151;52.246;4.820;2024-01-30T07:35:52;12.30;91.80
14142;DHT22;7151;52.246;4.820;2024-01-30T07:38:18;12.30;91.80
14142;DHT22;7151;52.246;4.820;2024-01-30T07:40:44;12.30;91.90
14142;DHT22;7151;52.246;4.820;2024-01-30T07:43:09;12.30;91.90
14142;DHT22;7151;52.246;4.820;2024-01-30T07:45:35;12.30;91.90
14142;DHT22;7151;52.246;4.820;2024-01-30T07:48:02;12.30;91.90
14142;DHT22;7151;52.246;4.820;2024-01-30T07:50:31;12.40;92.30
14142;DHT22;7151;52.246;4.820;2024-01-30T07:53:00;12.30;91.90
14142;DHT22;7151;52.246;4.820;2024-01-30T07:55:26;12.50;91.90
14142;DHT22;7151;52.246;4.820;2024-01-30T07:57:57;12.40;91.90
14142;DHT22;7151;52.246;4.820;2024-01-30T08:00:23;12.40;91.90
14142;DHT22;7151;52.246;4.820;2024-01-30T08:02:57;12.40;91.90
14142;DHT22;7151;52.246;4.820;2024-01-30T08:05:24;12.40;92.00
14142;DHT22;7151;52.246;4.820;2024-01-30T08:07:50;12.40;91.90
14142;DHT22;7151;52.246;4.820;2024-01-30T08:10:16;12.40;91.90
14142;DHT22;7151;52.246;4.820;2024-01-30T08:12:43;12.50;92.00
14142;DHT22;7151;52.246;4.820;2024-01-30T08:15:09;12.50;92.10
14142;DHT22;7151;52.246;4.820;2024-01-30T08:17:35;12.50;92.10
14142;DHT22;7151;52.246;4.820;2024-01-30T08:20:01;12.50;92.10
14142;DHT22;7151;52.246;4.820;2024-01-30T08:22:26;12.50;92.40
14142;DHT22;7151;52.246;4.820;2024-01-30T08:24:52;12.50;92.10
14142;DHT22;7151;52.246;4.820;2024-01-30T08:27:18;12.50;92.10
14142;DHT22;7151;52.246;4.820;2024-01-30T08:29:43;12.60;92.20
14142;DHT22;7151;52.246;4.820;2024-01-30T08:32:09;12.60;92.20
14142;DHT22;7151;52.246;4.820;2024-01-30T08:34:34;12.60;92.30
14142;DHT22;7151;52.246;4.820;2024-01-30T08:37:00;12.60;92.30
14142;DHT22;7151;52.246;4.820;2024-01-30T08:39:25;12.60;92.30
14142;DHT22;7151;52.246;4.820;2024-01-30T08:41:57;12.70;92.30
14142;DHT22;7151;52.246;4.820;2024-01-30T08:44:23;12.70;92.40
14142;DHT22;7151;52.246;4.820;2024-01-30T08:46:49;12.70;92.40
14142;DHT22;7151;52.246;4.820;2024-01-30T08:49:16;12.70;92.40
14142;DHT22;7151;52.246;4.820;2024-01-30T08:51:42;12.80;92.50
14142;DHT22;7151;52.246;4.820;2024-01-30T08:54:08;12.80;92.50
14142;DHT22;7151;52.246;4.820;2024-01-30T08:56:36;12.80;92.50
14142;DHT22;7151;52.246;4.820;2024-01-30T08:59:05;12.80;92.60
14142;DHT22;7151;52.246;4.820;2024-01-30T09:01:31;12.90;92.60
14142;DHT22;7151;52.246;4.820;2024-01-30T09:03:59;12.90;92.60
14142;DHT22;7151;52.246;4.820;2024-01-30T09:06:25;12.90;92.60
14142;DHT22;7151;52.246;4.820;2024-01-30T09:08:53;12.90;92.60
14142;DHT22;7151;52.246;4.820;2024-01-30T09:11:19;13.00;92.70
14142;DHT22;7151;52.246;4.820;2024-01-30T09:13:44;13.00;92.70
14142;DHT22;7151;52.246;4.820;2024-01-30T09:16:10;13.10;92.70
14142;DHT22;7151;52.246;4.820;2024-01-30T09:18:35;13.10;92.70
14142;DHT22;7151;52.246;4.820;2024-01-30T09:21:01;13.10;92.70
14142;DHT22;7151;52.246;4.820;2024-01-30T09:23:27;13.10;92.70
14142;DHT22;7151;52.246;4.820;2024-01-30T09:25:53;13.20;92.70
14142;DHT22;7151;52.246;4.820;2024-01-30T09:28:19;13.20;92.70
14142;DHT22;7151;52.246;4.820;2024-01-30T09:30:44;13.20;92.70
14142;DHT22;7151;52.246;4.820;2024-01-30T09:33:10;13.20;92.70
14142;DHT22;7151;52.246;4.820;2024-01-30T09:35:36;13.30;92.70
14142;DHT22;7151;52.246;4.820;2024-01-30T09:38:02;13.20;92.60
14142;DHT22;7151;52.246;4.820;2024-01-30T09:40:28;13.30;92.70
14142;DHT22;7151;52.246;4.820;2024-01-30T09:42:54;13.30;92.60
14142;DHT22;7151;52.246;4.820;2024-01-30T09:45:24;13.20;92.60
14142;DHT22;7151;52.246;4.820;2024-01-30T09:47:50;13.40;92.60
14142;DHT22;7151;52.246;4.820;2024-01-30T09:50:16;13.40;92.60
14142;DHT22;7151;52.246;4.820;2024-01-30T09:52:47;13.40;92.50
14142;DHT22;7151;52.246;4.820;2024-01-30T09:55:13;13.40;92.50
14142;DHT22;7151;52.246;4.820;2024-01-30T09:57:41;13.40;92.50
14142;DHT22;7151;52.246;4.820;2024-01-30T10:00:07;13.40;92.40
14142;DHT22;7151;52.246;4.820;2024-01-30T10:02:35;13.50;92.40
14142;DHT22;7151;52.246;4.820;2024-01-30T10:05:01;13.50;92.30
14142;DHT22;7151;52.246;4.820;2024-01-30T10:07:27;13.50;92.30
14142;DHT22;7151;52.246;4.820;2024-01-30T10:09:53;13.40;92.20
14142;DHT22;7151;52.246;4.820;2024-01-30T10:12:20;13.50;92.00
14142;DHT22;7151;52.246;4.820;2024-01-30T10:14:46;13.40;92.00
14142;DHT22;7151;52.246;4.820;2024-01-30T10:17:12;13.40;91.90
14142;DHT22;7151;52.246;4.820;2024-01-30T10:19:39;13.40;91.80
14142;DHT22;7151;52.246;4.820;2024-01-30T10:22:05;13.30;91.70
14142;DHT22;7151;52.246;4.820;2024-01-30T10:24:31;13.40;91.70
14142;DHT22;7151;52.246;4.820;2024-01-30T10:26:57;13.30;91.60
14142;DHT22;7151;52.246;4.820;2024-01-30T10:29:23;13.30;91.60
14142;DHT22;7151;52.246;4.820;2024-01-30T10:32:02;13.30;91.50
14142;DHT22;7151;52.246;4.820;2024-01-30T10:34:28;13.30;91.50
14142;DHT22;7151;52.246;4.820;2024-01-30T10:37:22;13.30;91.40
14142;DHT22;7151;52.246;4.820;2024-01-30T10:39:53;13.30;91.40
14142;DHT22;7151;52.246;4.820;2024-01-30T10:42:19;13.30;91.40
14142;DHT22;7151;52.246;4.820;2024-01-30T10:45:00;13.30;91.30
14142;DHT22;7151;52.246;4.820;2024-01-30T10:47:29;13.20;91.30
14142;DHT22;7151;52.246;4.820;2024-01-30T10:49:55;13.20;91.30
14142;DHT22;7151;52.246;4.820;2024-01-30T10:52:23;13.20;91.30
14142;DHT22;7151;52.246;4.820;2024-01-30T10:54:54;13.20;91.30
14142;DHT22;7151;52.246;4.820;2024-01-30T10:57:25;13.20;91.30
14142;DHT22;7151;52.246;4.820;2024-01-30T10:59:53;13.20;91.40
14142;DHT22;7151;52.246;4.820;2024-01-30T11:02:20;13.20;91.40
14142;DHT22;7151;52.246;4.820;2024-01-30T11:04:47;13.10;91.40
14142;DHT22;7151;52.246;4.820;2024-01-30T11:07:24;13.10;91.40
14142;DHT22;7151;52.246;4.820;2024-01-30T11:09:51;13.10;91.40
14142;DHT22;7151;52.246;4.820;2024-01-30T11:12:22;13.10;91.40
14142;DHT22;7151;52.246;4.820;2024-01-30T11:14:48;13.00;91.40
14142;DHT22;7151;52.246;4.820;2024-01-30T11:17:14;13.10;91.40
14142;DHT22;7151;52.246;4.820;2024-01-30T11:19:41;13.00;91.40
14142;DHT22;7151;52.246;4.820;2024-01-30T11:22:07;13.00;91.40
14142;DHT22;7151;52.246;4.820;2024-01-30T11:24:40;13.00;91.40
14142;DHT22;7151;52.246;4.820;2024-01-30T11:27:10;13.00;91.40
14142;DHT22;7151;52.246;4.820;2024-01-30T11:29:36;13.00;91.40
14142;DHT22;7151;52.246;4.820;2024-01-30T11:32:02;13.00;91.40
14142;DHT22;7151;52.246;4.820;2024-01-30T11:34:28;12.90;91.40
14142;DHT22;7151;52.246;4.820;2024-01-30T11:36:58;12.90;91.40
14142;DHT22;7151;52.246;4.820;2024-01-30T11:39:28;12.90;91.40
14142;DHT22;7151;52.246;4.820;2024-01-30T11:41:55;12.90;91.40
14142;DHT22;7151;52.246;4.820;2024-01-30T11:44:21;12.80;91.30
14142;DHT22;7151;52.246;4.820;2024-01-30T11:46:51;12.90;91.30
14142;DHT22;7151;52.246;4.820;2024-01-30T11:49:17;12.80;91.20
14142;DHT22;7151;52.246;4.820;2024-01-30T11:51:45;12.80;91.20
14142;DHT22;7151;52.246;4.820;2024-01-30T11:54:17;12.80;91.20
14142;DHT22;7151;52.246;4.820;2024-01-30T11:56:43;12.80;91.20
14142;DHT22;7151;52.246;4.820;2024-01-30T11:59:12;12.80;91.20
14142;DHT22;7151;52.246;4.820;2024-01-30T12:01:38;12.80;91.20
14142;DHT22;7151;52.246;4.820;2024-01-30T12:04:04;12.80;91.20
14142;DHT22;7151;52.246;4.820;2024-01-30T12:06:37;12.80;91.20
14142;DHT22;7151;52.246;4.820;2024-01-30T12:09:04;12.90;91.20
14142;DHT22;7151;52.246;4.820;2024-01-30T12:11:31;12.80;91.20
14142;DHT22;7151;52.246;4.820;2024-01-30T12:13:57;12.90;91.20
14142;DHT22;7151;52.246;4.820;2024-01-30T12:16:26;12.90;91.30
14142;DHT22;7151;52.246;4.820;2024-01-30T12:18:59;12.90;91.30
14142;DHT22;7151;52.246;4.820;2024-01-30T12:21:26;12.90;91.30
14142;DHT22;7151;52.246;4.820;2024-01-30T12:23:52;12.90;91.30
14142;DHT22;7151;52.246;4.820;2024-01-30T12:26:17;12.90;91.30
14142;DHT22;7151;52.246;4.820;2024-01-30T12:28:49;12.90;91.30
14142;DHT22;7151;52.246;4.820;2024-01-30T12:31:15;12.80;91.30
14142;DHT22;7151;52.246;4.820;2024-01-30T12:33:41;12.90;91.30
14142;DHT22;7151;52.246;4.820;2024-01-30T12:36:07;12.90;91.40
14142;DHT22;7151;52.246;4.820;2024-01-30T12:38:36;12.90;91.50
14142;DHT22;7151;52.246;4.820;2024-01-30T12:41:01;12.80;91.50
14142;DHT22;7151;52.246;4.820;2024-01-30T12:43:27;12.90;91.60
14142;DHT22;7151;52.246;4.820;2024-01-30T12:45:54;12.80;91.60
14142;DHT22;7151;52.246;4.820;2024-01-30T12:48:22;12.90;91.60
14142;DHT22;7151;52.246;4.820;2024-01-30T12:50:50;12.90;91.60
14142;DHT22;7151;52.246;4.820;2024-01-30T12:53:16;12.80;91.60
14142;DHT22;7151;52.246;4.820;2024-01-30T12:55:41;12.80;91.60
14142;DHT22;7151;52.246;4.820;2024-01-30T12:58:07;12.80;91.70
14142;DHT22;7151;52.246;4.820;2024-01-30T13:00:33;12.90;91.70
14142;DHT22;7151;52.246;4.820;2024-01-30T13:03:02;12.90;91.70
14142;DHT22;7151;52.246;4.820;2024-01-30T13:05:27;12.80;91.70
14142;DHT22;7151;52.246;4.820;2024-01-30T13:07:53;12.90;91.80
14142;DHT22;7151;52.246;4.820;2024-01-30T13:10:19;12.80;91.80
14142;DHT22;7151;52.246;4.820;2024-01-30T13:12:44;12.80;91.70
14142;DHT22;7151;52.246;4.820;2024-01-30T13:15:13;12.80;91.80
14142;DHT22;7151;52.246;4.820;2024-01-30T13:17:38;12.80;91.80
14142;DHT22;7151;52.246;4.820;2024-01-30T13:20:05;12.80;91.80
14142;DHT22;7151;52.246;4.820;2024-01-30T13:22:30;12.80;91.80
14142;DHT22;7151;52.246;4.820;2024-01-30T13:24:56;12.70;91.80
14142;DHT22;7151;52.246;4.820;2024-01-30T13:27:22;12.70;91.90
14142;DHT22;7151;52.246;4.820;2024-01-30T13:29:48;12.70;91.90
14142;DHT22;7151;52.246;4.820;2024-01-30T13:32:13;12.70;91.90
14142;DHT22;7151;52.246;4.820;2024-01-30T13:34:39;12.70;92.00
14142;DHT22;7151;52.246;4.820;2024-01-30T13:37:05;12.70;92.00
14142;DHT22;7151;52.246;4.820;2024-01-30T13:39:31;12.60;92.00
14142;DHT22;7151;52.246;4.820;2024-01-30T13:41:56;12.70;92.00
14142;DHT22;7151;52.246;4.820;2024-01-30T13:44:22;12.60;92.00
14142;DHT22;7151;52.246;4.820;2024-01-30T13:46:48;12.70;92.10
14142;DHT22;7151;52.246;4.820;2024-01-30T13:49:14;12.70;92.10
14142;DHT22;7151;52.246;4.820;2024-01-30T13:51:39;12.70;92.10
14142;DHT22;7151;52.246;4.820;2024-01-30T13:54:05;12.70;92.20
14142;DHT22;7151;52.246;4.820;2024-01-30T13:56:31;12.60;92.20
14142;DHT22;7151;52.246;4.820;2024-01-30T13:58:56;12.60;92.20
14142;DHT22;7151;52.246;4.820;2024-01-30T14:01:22;12.60;92.20
14142;DHT22;7151;52.246;4.820;2024-01-30T14:03:49;12.50;92.20
14142;DHT22;7151;52.246;4.820;2024-01-30T14:06:14;12.60;92.60
14142;DHT22;7151;52.246;4.820;2024-01-30T14:08:40;12.60;92.30
14142;DHT22;7151;52.246;4.820;2024-01-30T14:11:06;12.60;92.30
14142;DHT22;7151;52.246;4.820;2024-01-30T14:13:32;12.60;92.30
14142;DHT22;7151;52.246;4.820;2024-01-30T14:15:58;12.60;92.40
14142;DHT22;7151;52.246;4.820;2024-01-30T14:18:23;12.60;92.40
14142;DHT22;7151;52.246;4.820;2024-01-30T14:20:51;12.60;92.40
14142;DHT22;7151;52.246;4.820;2024-01-30T14:23:17;12.70;92.40
14142;DHT22;7151;52.246;4.820;2024-01-30T14:25:43;12.60;92.40
14142;DHT22;7151;52.246;4.820;2024-01-30T14:28:09;12.70;92.40
14142;DHT22;7151;52.246;4.820;2024-01-30T14:30:34;12.60;92.40
14142;DHT22;7151;52.246;4.820;2024-01-30T14:33:01;12.60;92.40
14142;DHT22;7151;52.246;4.820;2024-01-30T14:35:42;12.60;92.40
14142;DHT22;7151;52.246;4.820;2024-01-30T14:38:07;12.50;92.70
14142;DHT22;7151;52.246;4.820;2024-01-30T14:40:33;12.60;92.40
14142;DHT22;7151;52.246;4.820;2024-01-30T14:42:59;12.50;92.40
14142;DHT22;7151;52.246;4.820;2024-01-30T14:45:27;12.60;92.50
14142;DHT22;7151;52.246;4.820;2024-01-30T14:47:53;12.60;92.50
14142;DHT22;7151;52.246;4.820;2024-01-30T14:50:21;12.60;92.50
14142;DHT22;7151;52.246;4.820;2024-01-30T14:52:47;12.60;92.50
14142;DHT22;7151;52.246;4.820;2024-01-30T14:55:12;12.70;92.60
14142;DHT22;7151;52.246;4.820;2024-01-30T14:57:38;12.50;92.50
14142;DHT22;7151;52.246;4.820;2024-01-30T15:00:05;12.60;92.50
14142;DHT22;7151;52.246;4.820;2024-01-30T15:02:30;12.50;92.50
14142;DHT22;7151;52.246;4.820;2024-01-30T15:04:56;12.50;92.50
14142;DHT22;7151;52.246;4.820;2024-01-30T15:07:22;12.50;92.50
14142;DHT22;7151;52.246;4.820;2024-01-30T15:09:48;12.50;92.50
14142;DHT22;7151;52.246;4.820;2024-01-30T15:12:13;12.50;92.50
14142;DHT22;7151;52.246;4.820;2024-01-30T15:14:39;12.50;92.60
14142;DHT22;7151;52.246;4.820;2024-01-30T15:17:05;12.50;92.50
14142;DHT22;7151;52.246;4.820;2024-01-30T15:19:30;12.50;92.50
14142;DHT22;7151;52.246;4.820;2024-01-30T15:21:56;12.50;92.80
14142;DHT22;7151;52.246;4.820;2024-01-30T15:24:22;12.50;92.50
14142;DHT22;7151;52.246;4.820;2024-01-30T15:26:50;12.50;92.50
14142;DHT22;7151;52.246;4.820;2024-01-30T15:29:16;12.40;92.50
14142;DHT22;7151;52.246;4.820;2024-01-30T15:31:42;12.40;92.50
14142;DHT22;7151;52.246;4.820;2024-01-30T15:34:08;12.40;92.40
14142;DHT22;7151;52.246;4.820;2024-01-30T15:36:36;12.40;92.40
14142;DHT22;7151;52.246;4.820;2024-01-30T15:39:02;12.40;92.50
14142;DHT22;7151;52.246;4.820;2024-01-30T15:41:28;12.40;92.50